TXKF/BDA METAR and TAF weather

Enter ICAO airport designator
Station Type Date Time Source
TXKF METAR 2021/04/17 02:55 UTC NOAA

TXKF 170255Z 22017KT 9999 -RA FEW012 SCT043 BKN100 OVC160 20/19 Q1009


Station Type Date Time Source
TXKF Decoded METAR 2021/04/17 02:55 UTC NOAA

Bermuda, Bermuda (TXKF) 32-22N 064-41W
Apr 16, 2021 - 10:55 PM EDT / 2021.04.17 0255 UTC
Wind: from the SW (220 degrees) at 20 MPH (17 KT):0
Visibility: greater than 7 mile(s):0
Sky conditions: overcast
Weather: light rain
Temperature: 68 F (20 C)
Dew Point: 66 F (19 C)
Relative Humidity: 93%
Pressure (altimeter): 29.80 in. Hg (1009 hPa)
ob: TXKF 170255Z 22017KT 9999 -RA FEW012 SCT043 BKN100 OVC160 20/19 Q1009
cycle: 3

Station Type Date Time Source
TXKF TAF 2021/04/16 18:53 UTC NOAA

TAF TXKF 161745Z 1618/1718 22020KT 9999 -RA FEW025 SCT080 BKN300
TEMPO 1618/1624 23025G35KT 3200 RA BKN012 OVC025 PROB30
TEMPO 1619/1704 24022G32KT 2000 SHRA BR BKN008 OVC012CB
BECMG 1701/1704 27012KT SCT006 BKN015 PROB40
TEMPO 1702/1713 2000 RA BR BKN006
BECMG 1710/1714 32010KT NSW SCT030

Example: see airport list